LICJLIRE

Guest
Details From LICJ - Palermo
To LIRE - Pratica Di Mare
Flight Number -
Tags Real
Created
Modified
Stats Distance 212 nm / 393 km
Max Altitude 0 ft / 0 m
Waypoints 2
Social Downloads 0
Likes 0
Share VATSIM

Download

Looking for another format? Having issues loading an existing format? Contact us
Advertisement - Login to hide

Notes

None

Route

LICJ LIRE

ID Type Via Altitude Latitude Longitude Leg Dist Tot Dist Heading (true) Name
O LICJ APT - 0 ft / 0 m 38.16614˚ 13.08562˚ - 0 nm - -
O LIRE APT - 0 ft / 0 m 41.66242˚ 12.43448˚ 212 nm 212 nm 352° / 352° -

Altitude Profile

Advertisement - Login to hide

Weather


0- 5 10 15 20 25 30 35+ Temperature / ° C

Clouds and Precipitation
Forecast for 2018-05-22 18:00 UTC. Updated 2 hours ago

Ground ~20,000 ft ~40,000 ft Winds

LICJ

Details ICAO LICJ (PMO)
Name PALERMO
Region Italy
Timezone Europe/Rome (UTC+2.0)
Stats Elevation 65 ft / 20 m (AMSL)
Location 38.177377° 13.097035°
Runways 2
Magnetic Variation 2.993° E

METAR

LICJ 221920Z 02014KT 9000 SCT008 SCT016 19/18 Q1014

Decode

TAF

TAF LICJ 221700Z 2218/2318 VRB06KT 9999 SCT030 TEMPO 2218/2221 SHRA BECMG 2308/2310 27010KT BECMG 2316/2318 VRB05KT

Decode

Departure Runways

ID Width Length Bearing (true) Bearing (mag) Surface Threshold Offset Overrun Length
02 148 ft / 45 m 6,813 ft / 2,077 m 23.81° 20.82° Asphalt 10 ft / 3 m 0 ft / 0 m
07 197 ft / 60 m 10,685 ft / 3,257 m 66.82° 63.83° Asphalt 404 ft / 123 m 0 ft / 0 m
20 148 ft / 45 m 6,813 ft / 2,077 m 203.81° 200.82° Asphalt 10 ft / 3 m 0 ft / 0 m
25 197 ft / 60 m 10,685 ft / 3,257 m 246.85° 243.86° Asphalt 679 ft / 207 m 0 ft / 0 m

LIRE

Details ICAO LIRE
Name Pratica Di Mare
Region Italy
Timezone Europe/Rome (UTC+2.0)
Stats Elevation 39 ft / 12 m (AMSL)
Location 41.654524° 12.445184°
Runways 2
Magnetic Variation 3.069° E

METAR

LIRE 221855Z 09003KT 9999 SCT040 BKN070 20/19 Q1013 RMK OVC VIS MIN 9999 WIND THR13 11003KT WIND THR31 10003KT BLU

Decode

TAF

Not found

Destination Runways

ID Width Length Bearing (true) Bearing (mag) Surface Threshold Offset Overrun Length
13 148 ft / 45 m 8,340 ft / 2,542 m 130.05° 126.98° Asphalt 500 ft / 152 m 0 ft / 0 m
13L 98 ft / 30 m 8,135 ft / 2,479 m 130.02° 126.95° Asphalt 430 ft / 131 m 0 ft / 0 m
31 148 ft / 45 m 8,340 ft / 2,542 m 310.07° 307.00° Asphalt 350 ft / 107 m 700 ft / 213 m
31R 98 ft / 30 m 8,135 ft / 2,479 m 310.03° 306.96° Asphalt 430 ft / 131 m 0 ft / 0 m

Approach Navaids

Runway Type Ident Frequency Range Bearing (true) Bearing (mag) Slope Elevation
31 Localiser PRA 109.55 MHz 18 nm / 33 km 310.02° 306.95° - 39 ft / 12 m (AMSL)
31 Glidescope PRA 109.55 MHz 10 nm / 19 km 310.06° 306.99° 3.00° 82 ft / 25 m (AMSL)
31 DME PRA 109.55 MHz 18 nm / 33 km - - - 82 ft / 25 m (AMSL)

Popular Alternatives